Beta version 0.4

Airbus 330-200

№RA-AST21

Boeing 737-800 NG

№RA-ART04

Airbus 320-200

№RA-AST51

Airbus 320-200

№RA-AST50

Airbus 330-200

№RA-AST21

Airbus 330-200

№RA-AST21

Airbus 320-200

№RA-AST50

Туполев - 154М

№RA-AST25

  • Aerostream Network
  • Aerostream Network
  • Aerostream Network
  • Aerostream Network
  • Aerostream Network
  • Aerostream Network
  • Aerostream Network
  • Aerostream Network
Информация о пилоте

Номер рейса Борт Аэропорт вылета Погодные условия вылета Эшелон Аэропорт прилёта Погодные условия прилёта Вертикальная скорость в момент касания Особенности полёта
149RA-AST25ULLIMETAR ULLI 231530Z 22003MPS 190V260 9999 OVC015 M01/M03 Q1016 88610250 NOSIG=390UWSSMETAR UWSS 231730Z 24003MPS 9999 OVC024 M02/M06 Q1017 30800250 NOSIG RMK QFE749= -184В штатном режиме. Тип захода Директорный.
148RA-AST25UWKDMETAR UWKD 151230Z 20004MPS 9999 OVC010 M03/M03 Q1028 113/0040 NOSIG RMK QFE761/1015= 380ULLIMETAR ULLI 151430Z 21008G13MPS 9999 BKN018 OVC066 05/03 Q0998 88290052 NOSIG RMK 10R/21004G08MPS 10L/21008G13MPS=-159В штатном режиме. Тип захода ОСП.
147RA-AST25ULLIMETAR ULLI 151000Z 17006G11MPS 140V210 9999 OVC015 06/04 Q0998 88290052 NOSIG=390UWKDMETAR UWKD 151130Z 20006MPS 9999 OVC010 M03/M04 Q1028 113/0037 NOSIG RMK QFE761/1015=-127В штатном режиме. Тип захода Директорный.
146RA-AST25ULAAMETAR ULAA 141900Z 18005MPS 030V200 9999 OVC012 M01/M02 Q1009 NOSIG RMK QFE756/1008 SC047= 380ULLIMETAR ULLI 142000Z 18002MPS 140V270 9999 SCT020 BKN066 02/01 Q1006 60290050 10////// NOSIG RMK MOD ICE INC 2500-3000=-63В штатном режиме. Тип захода ОСП.
145RA-AST25ULLIMETAR ULLI 141700Z 19002MPS 140V250 9999 SCT023CB OVC040 02/02 Q1005 60290050 10////// NOSIG=390ULAAMETAR ULAA 141800Z 18005G08MPS 140V210 5000 OVC011 M01/M02 Q1009 TEMPO 0800 +SHSN BKN004CB RMK QFE756/1008 SC035= -89В штатном режиме, на аэродроме прилета наблюдался ливневой снег и сильный гололед.
148RA-AST25UWKDMETAR UWKD 011200Z 36003MPS 9999 OVC011 M05/M06 Q1017 798/0050 NOSIG RMK QFE751/1002=380ULLIMETAR ULLI 011330Z 21003MPS CAVOK 02/01 Q1016 88290052 NOSIG=-76В штатном режиме. Тип захода VOR/DME.
147RA-AST25ULLIMETAR ULLI 010930Z 25002MPS 180V280 9999 BKN005 OVC018 04/03 Q1016 28290052 78////// TEMPO BKN005 RMK OBST OBSC= 390UWKDMETAR UWKD 011130Z 35003MPS 9999 OVC010 M05/M06 Q1017 798/0050 NOSIG RMK QFE751/1002=-67В штатном режиме. Тип захода Директорный.
147
150RA-AST25UWSSMETAR UWSS 251900Z 28006MPS 9999 -SN OVC010 M05/M07 Q1021 30490341 NOSIG RMK QFE752=FL380ULLIMETAR ULLI 252100Z 21005G11MPS 9999 OVC014 07/04 Q1001 28290052 78////// NOSIG=-124В штатном режиме. Тип захода ОСП.
149RA-AST25ULLIMETAR ULLI 251630Z 19003MPS 150V240 9999 SCT009 OVC026 06/05 Q1006 28290050 78////// TEMPO 18007G12MPS=FL390UWSSMETAR UWSS 251830Z 28006MPS 9999 -SN OVC009 M05/M07 Q1022 30490341 NOSIG RMK QFE753=-71В штатном режиме. Тип захода Деректорный.Интересный заход в Саратове!)
152RA-AST25КольцовоMETAR USSS 191730Z 25004MPS P6000 BKN067 M10/M13 Q1010 NOSIG RMK QFE737 76820342=FL380ПулковоMETAR ULLI 192030Z 31005MPS 9999 BKN030 01/M04 Q1013 28190062 78////// NOSIG=-149В штатном режиме. Тип захода ОСП.
151RA-AST25ПулковоMETAR ULLI 191030Z 30008MPS 9999 OVC007 03/02 Q1000 28290052 78////// NOSIG= FL390КольцовоMETAR USSS 191230Z 25006MPS P6000 SCT043 BKN067 M08/M12 Q1009 NOSIG RMK QFE736 76820342=-177в штатном режиме. Тип захода ОСП.
144RA-AST25КуркмочMETAR UWWW 151030Z 21007MPS 2200 -SNRA BKN011 OVC100 M02/M03 Q1001 23520345 33//99// TEMPO 1000 SNRA RMK QFE741/0988 660000=11600ПулковоMETAR ULLI 151230Z 30006MPS CAVOK M00/M07 Q1017 28090072 78////// NOSIG= -135В штатном режиме, на аэродроме вылета условия ограниченой видимости, снег. Заход в Пулково ОСП.
143RA-AST25ПулковоMETAR ULLI 150800Z 33007MPS CAVOK M00/M06 Q1017 28090072 78////// NOSIG= 12100КурумочMETAR UWWW 151030Z 21007MPS 2200 -SNRA BKN011 OVC100 M02/M03 Q1002 23520345 33//99// TEMPO 1000 SNRA RMK QFE741/0988 660000=-155В штатном режиме, в аэропорту прилета наблюдалась плохая видимость, ливневой снег.
154RA-AST25СургутMETAR USRR 130430Z 29005MPS 5000 -SN OVC042 M12/M14 Q1005 TEMPO 2000 SHSN RMK QFE749 ИПЗ 25////34=11600ПулковоMETAR ULLI 130730Z 25004MPS 210V290 9999 OVC015 04/01 Q1035 28090072 78////// NOSIG=-149В штатном режиме, в районе аэропорта вылета наблюдался слабый ливневой снег.
153RA-AST25ПулковоMETAR ULLI 130030Z VRB01MPS 9999 OVC008 03/02 Q1039 28290052 78////// TEMPO BKN002= 12100СургутMETAR USRR 130330Z 29004MPS 7000 SCT033CB OVC080 M12/M14 Q1006 TEMPO 2000 SHSN RMK QFE749 25////34=-159В штатном режиме, в районе аэродрома посадки наблюдалась слабая болтанка
Таллаги
146RA-AST25ТаллагиMETAR ULAA 021130Z 23003MPS 210V280 6000 -RA OVC005 07/07 Q1000 TEMPO 0500 DZ FG BKN003 RMK QBB150 QFE748/0998 SC060= 11600ПулковоMETAR ULLI 021300Z 22004MPS 190V250 9999 OVC018 11/08 Q1016 28////// 78090072 NOSIG= -206В штатном режиме, на аэродроме наблюдался вылета слабый дождь.
145RA-AST25ПулковоMETAR ULLI 020930Z 24006MPS 9999 OVC028 11/08 Q1017 88090072 NOSIG=11100ULAAMETAR ULAA 021100Z 23003MPS 200V260 3700 -RA BR OVC004 07/07 Q1000 TEMPO 0500 DZ FG BKN003 RMK QBB120 QFE749/0998 SC060= -112В штатном режиме, на аэродромме прилета наблюдался слабый дождь и ВНГО 120м.
150RA-AST25ДомодедовоMETAR UUDD 200900Z 18004MPS 160V220 CAVOK 09/04 Q1020 64010095 14010095 NOSIG10600ПулковоMETAR ULLI 201030Z 19005G10MPS 140V240 9999 BKN023 OVC066 08/05 Q1006 88090072 NOSIG-105В штатном режиме, на прямой наблюдался умеренный сдвиг ветра по направлению.
149RA-AST25ПулковоMETAR ULLI 200700Z 19006MPS 9999 BKN013 OVC066 07/04 Q1006 88090072 NOSIG11100ДомодедовоMETAR UUDD 200800Z 18005MPS CAVOK 07/03 Q1020 64010095 14010095 NOSIG-147В штатном режиме
UTC
Календарь событий
Статистика авиакомпании
Новые пилоты
Метеобрифинг
Для получения метара введите 4 буквы ICAO кода аэропорта и нажмите "Получить". Также можно ввести несколько аэропортов через пробел (Например: ULLI URRR @WY). Список аэропортов в этом файле, stations.txt.
     Одной строкой
 Расшифрованный

 METAR   
 TAF (прогноз)

 
Обратная связь

По всем вопросам обращайтесь по адресу inbox@http://aerostream-va.ru

Голосование
Rambler's Top100